Latest Weather Observations for Nhill Aerodrome

IDV60801

Issued at 9:05 am EST Saturday 23 August 2014 (issued every 30 minutes, with the page automatically refreshed every 10 minutes)

About weather observations | Map of weather stations | Latest weather observations for VIC | Other Formats
Station Details ID: 078015 Name: NHILL AERODROME Lat: -36.31 Lon: 141.65 Height: 138.9 m
Data from the previous 72 hours. | See also: Recent months at Nhill Aerodrome
Date/Time
EST
Temp
°C
App
Temp
°C
Dew
Point
Rel
Hum
%
Delta-T
°C
Wind Press
QNH
hPa
Press
MSL
hPa
Rain
since 9 am
mm
Dir
 
Spd
km/h
Gust
km/h
Spd
kts
Gust
kts
23/09:00am 9.7 6.4 6.6 81 1.4 NE 13 22 7 12 1025.1 1025.3 0.0
23/08:30am 8.3 4.4 5.4 82 1.3 NE 15 28 8 15 1025.1 1025.3 0.0
23/08:00am 8.0 3.3 5.1 82 1.3 NE 19 24 10 13 1025.0 1025.2 0.0
23/07:30am 7.4 3.0 4.7 83 1.2 NE 17 24 9 13 1024.9 1025.1 0.0
23/07:00am 7.1 2.3 4.6 84 1.1 NE 19 26 10 14 1024.8 1025.0 0.0
23/06:30am 6.9 2.4 4.4 84 1.1 NE 17 22 9 12 1024.7 1024.9 0.0
23/06:00am 6.7 3.4 4.4 85 1.0 NE 11 17 6 9 1024.6 1024.8 0.0
23/05:30am 6.7 3.0 4.4 85 1.0 NE 13 19 7 10 1024.5 1024.7 0.0
23/05:00am 6.6 2.8 4.1 84 1.1 NE 13 19 7 10 1024.4 1024.6 0.0
23/04:30am 6.9 3.2 4.4 84 1.1 NE 13 19 7 10 1024.2 1024.4 0.0
23/04:00am 7.1 2.7 4.6 84 1.1 NE 17 24 9 13 1024.2 1024.4 0.0
23/03:30am 7.3 2.9 4.6 83 1.2 NE 17 22 9 12 1024.2 1024.4 0.0
23/03:00am 7.6 2.8 4.7 82 1.3 NE 19 26 10 14 1024.6 1024.8 0.0
23/02:30am 7.9 3.5 4.8 81 1.4 NE 17 24 9 13 1024.7 1024.9 0.0
23/02:00am 7.9 3.5 4.8 81 1.4 NE 17 22 9 12 1025.0 1025.2 0.0
23/01:30am 8.2 3.8 4.8 79 1.5 NE 17 20 9 11 1025.2 1025.4 0.0
23/01:00am 8.8 4.1 5.0 77 1.7 ENE 19 22 10 12 1025.4 1025.6 0.0
23/12:30am 9.3 4.4 4.9 74 2.0 NE 20 26 11 14 1025.5 1025.7 0.0
23/12:00am 9.5 4.6 5.1 74 2.0 NE 20 28 11 15 1025.6 1025.8 0.0
 
Date/Time
EST
Temp
°C
App
Temp
°C
Dew
Point
Rel
Hum
%
Delta-T
°C
Wind Press
QNH
hPa
Press
MSL
hPa
Rain
since 9 am
mm
Dir
 
Spd
km/h
Gust
km/h
Spd
kts
Gust
kts
22/11:30pm 9.9 5.0 5.1 72 2.2 NE 20 28 11 15 1025.7 1025.9 0.0
22/11:00pm 9.7 4.9 4.9 72 2.2 NE 19 24 10 13 1025.9 1026.1 0.0
22/10:30pm 10.0 5.2 4.8 70 2.4 ENE 19 24 10 13 1026.0 1026.2 0.0
22/10:00pm 10.9 6.2 5.2 68 2.6 NE 19 28 10 15 1026.2 1026.4 0.0
22/09:30pm 10.8 6.4 4.9 67 2.7 NE 17 24 9 13 1026.4 1026.6 0.0
22/09:00pm 10.6 7.3 4.5 66 2.7 NE 11 17 6 9 1026.1 1026.3 0.0
22/08:30pm 11.3 7.3 5.0 65 2.9 NE 15 20 8 11 1025.8 1026.0 0.0
22/08:00pm 11.8 8.5 4.8 62 3.2 NE 11 19 6 10 1025.6 1025.8 0.0
22/07:30pm 12.1 8.5 4.8 61 3.4 NE 13 19 7 10 1025.6 1025.8 0.0
22/07:00pm 12.6 8.2 4.8 59 3.6 NE 17 19 9 10 1025.4 1025.6 0.0
22/06:30pm 13.3 9.3 5.0 57 3.9 ENE 15 17 8 9 1025.2 1025.4 0.0
22/06:00pm 14.6 10.5 4.6 51 4.7 NE 15 20 8 11 1025.1 1025.3 0.0
22/05:30pm 16.5 12.8 4.5 45 5.7 NE 13 19 7 10 1025.1 1025.3 0.0
22/05:00pm 17.5 13.1 4.5 42 6.2 NE 17 26 9 14 1025.0 1025.2 0.0
22/04:30pm 17.8 12.9 4.0 40 6.5 NE 19 32 10 17 1024.8 1025.0 0.0
22/04:00pm 18.5 14.3 3.9 38 6.9 NE 15 24 8 13 1024.9 1025.1 0.0
22/03:30pm 17.9 12.9 4.8 42 6.3 NE 20 30 11 16 1025.1 1025.3 0.0
22/03:00pm 18.2 14.2 4.7 41 6.5 NE 15 22 8 12 1025.4 1025.6 0.0
22/02:30pm 18.1 13.7 5.0 42 6.3 NE 17 26 9 14 1025.8 1026.0 0.0
22/02:00pm 18.1 14.1 5.0 42 6.3 NNE 15 24 8 13 1026.1 1026.3 0.0
22/01:30pm 17.8 14.0 5.7 45 5.9 NNE 15 26 8 14 1026.5 1026.7 0.0
22/01:00pm 17.3 13.4 5.3 45 5.8 NNE 15 24 8 13 1027.0 1027.2 0.0
22/12:30pm 17.3 14.0 6.5 49 5.4 NNE 13 19 7 10 1027.6 1027.8 0.0
22/12:00pm 16.7 13.7 7.6 55 4.6 NE 13 20 7 11 1028.3 1028.5 0.0
22/11:30am 15.9 12.9 7.9 59 4.0 NE 13 20 7 11 1028.6 1028.8 0.0
22/11:00am 15.1 12.0 7.4 60 3.8 NE 13 20 7 11 1029.0 1029.2 0.0
22/10:30am 14.1 10.2 7.2 63 3.4 NE 17 24 9 13 1029.1 1029.3 0.0
22/10:00am 13.2 9.2 6.5 64 3.2 NE 17 26 9 14 1029.3 1029.5 0.0
22/09:30am 12.6 8.8 5.8 63 3.2 NNE 15 26 8 14 1029.4 1029.6 0.0
22/09:00am 9.3 5.0 5.1 75 1.9 ENE 17 22 9 12 1029.4 1029.6 0.0
22/08:30am 8.4 4.3 4.4 76 1.8 NE 15 20 8 11 1029.3 1029.5 0.0
22/08:00am 8.9 5.2 4.3 73 2.0 NE 13 20 7 11 1028.9 1029.1 0.0
22/07:30am 9.2 5.2 4.8 74 2.0 NE 15 22 8 12 1028.4 1028.6 0.0
22/07:00am 9.2 5.9 4.8 74 2.0 NE 11 19 6 10 1028.1 1028.4 0.0
22/06:30am 8.9 4.5 4.7 75 1.9 NE 17 20 9 11 1027.7 1027.9 0.0
22/06:00am 9.2 4.8 4.6 73 2.0 ENE 17 22 9 12 1027.4 1027.6 0.0
22/05:30am 9.4 4.6 4.6 72 2.2 ENE 19 22 10 12 1027.4 1027.6 0.0
22/05:00am 9.6 4.8 4.6 71 2.2 ENE 19 22 10 12 1027.3 1027.5 0.0
22/04:30am 9.8 4.8 4.6 70 2.3 ENE 20 26 11 14 1027.3 1027.5 0.0
22/04:00am 9.6 5.1 4.4 70 2.3 ENE 17 22 9 12 1027.3 1027.5 0.0
22/03:30am 9.1 4.6 4.3 72 2.1 ENE 17 20 9 11 1027.4 1027.6 0.0
22/03:00am 9.1 5.0 4.1 71 2.2 ENE 15 20 8 11 1027.5 1027.7 0.0
22/02:30am 8.6 4.1 4.2 74 1.9 ENE 17 20 9 11 1027.7 1027.9 0.0
22/02:00am 7.6 3.5 4.2 79 1.5 ENE 15 19 8 10 1027.8 1028.0 0.0
22/01:30am 7.5 3.4 4.1 79 1.5 E 15 17 8 9 1028.0 1028.3 0.0
22/01:00am 7.6 3.1 4.2 79 1.5 E 17 20 9 11 1027.9 1028.1 0.0
22/12:30am 7.2 3.0 3.8 79 1.5 ENE 15 17 8 9 1027.8 1028.0 0.0
22/12:00am 6.7 2.7 3.1 78 1.5 ENE 13 15 7 8 1027.8 1028.0 0.0
 
Date/Time
EST
Temp
°C
App
Temp
°C
Dew
Point
Rel
Hum
%
Delta-T
°C
Wind Press
QNH
hPa
Press
MSL
hPa
Rain
since 9 am
mm
Dir
 
Spd
km/h
Gust
km/h
Spd
kts
Gust
kts
21/11:30pm 6.2 2.2 3.0 80 1.3 ENE 13 15 7 8 1027.8 1028.0 0.0
21/11:00pm 5.9 2.7 3.1 82 1.2 ENE 9 11 5 6 1027.9 1028.1 0.0
21/10:30pm 5.0 2.0 2.0 81 1.2 ESE 7 9 4 5 1028.0 1028.3 0.0
21/10:00pm 6.5 2.9 2.8 77 1.5 E 11 11 6 6 1028.0 1028.3 0.0
21/09:30pm 6.6 3.0 3.2 79 1.4 E 11 11 6 6 1027.9 1028.1 0.0
21/09:00pm 6.6 4.0 3.4 80 1.3 E 6 9 3 5 1027.7 1027.9 0.0
21/08:30pm 7.0 4.4 3.4 78 1.5 E 6 7 3 4 1027.5 1027.7 0.0
21/08:00pm 7.7 3.8 3.6 75 1.8 E 13 13 7 7 1027.3 1027.5 0.0
21/07:30pm 8.9 5.5 3.9 71 2.2 E 11 13 6 7 1027.2 1027.4 0.0
21/07:00pm 8.7 4.8 3.5 70 2.2 E 13 13 7 7 1027.0 1027.2 0.0
21/06:30pm 10.4 7.4 4.3 66 2.7 WSW 9 9 5 5 1026.7 1026.9 0.0
21/06:00pm 12.5 10.6 5.0 60 3.5 WSW 4 9 2 5 1026.5 1026.7 0.0
21/05:30pm 14.0 12.8 4.6 53 4.4 CALM 0 0 0 0 1026.2 1026.4 0.0
21/05:00pm 14.5 12.5 4.5 51 4.6 WSW 4 6 2 3 1026.0 1026.2 0.0
21/04:30pm 15.1 12.6 3.9 47 5.2 W 6 11 3 6 1025.7 1025.9 0.0
21/04:00pm 15.1 13.9 4.5 49 4.9 CALM 0 6 0 3 1025.7 1025.9 0.0
21/03:30pm 14.6 11.6 4.0 49 4.9 N 9 15 5 8 1025.8 1026.0 0.0
21/03:00pm 14.6 11.9 3.7 48 5.0 NNW 7 15 4 8 1025.8 1026.0 0.0
21/02:30pm 14.5 11.9 4.2 50 4.8 W 7 11 4 6 1025.9 1026.1 0.0
21/02:00pm 14.3 11.6 3.7 49 4.8 NW 7 13 4 7 1026.1 1026.3 0.0
21/01:30pm 13.5 10.9 4.1 53 4.3 ENE 7 13 4 7 1026.5 1026.7 0.0
21/01:00pm 13.5 11.1 4.4 54 4.2 WNW 6 11 3 6 1026.8 1027.0 0.0
21/12:30pm 13.5 11.2 4.9 56 4.0 NNE 6 7 3 4 1027.3 1027.5 0.0
21/12:00pm 12.6 10.3 4.6 58 3.7 N 6 11 3 6 1027.6 1027.8 0.0
21/11:30am 12.1 9.6 4.6 60 3.4 NE 7 13 4 7 1027.9 1028.1 0.0
21/11:00am 11.8 9.3 5.0 63 3.1 NE 7 13 4 7 1028.3 1028.5 0.0
21/10:30am 11.0 7.8 5.1 67 2.7 ENE 11 13 6 7 1028.5 1028.7 0.0
21/10:00am 9.9 6.7 5.3 73 2.1 E 11 17 6 9 1028.6 1028.8 0.0
21/09:30am 8.7 5.2 5.6 81 1.4 E 13 15 7 8 1028.6 1028.8 0.0
21/09:00am 5.4 4.1 3.9 90 0.6 CALM 0 0 0 0 1028.8 1029.0 0.0
21/08:30am 2.4 0.6 0.9 90 0.6 CALM 0 0 0 0 1028.6 1028.8 0.0
21/08:00am 1.7 -0.2 0.4 91 0.5 CALM 0 0 0 0 1028.4 1028.6 0.0
21/07:30am -0.1 -2.7 -1.4 91 0.5 SSE 2 7 1 4 1028.0 1028.3 0.0
21/07:00am -0.8 -4.8 -2.2 90 0.4 SSE 9 9 5 5 1027.8 1028.0 0.0
21/06:30am -0.2 -3.7 -1.6 90 0.5 SSE 7 9 4 5 1027.5 1027.7 0.0
21/06:00am 0.6 -1.5 -0.8 90 0.5 CALM 0 6 0 3 1027.3 1027.5 0.0
21/05:30am 1.3 -1.9 -0.2 90 0.5 SSE 6 7 3 4 1027.2 1027.4 0.0
21/05:00am 1.4 -1.9 -0.1 90 0.5 SSE 7 7 4 4 1027.2 1027.4 0.0
21/04:30am 1.7 -1.6 0.2 90 0.6 SSE 7 9 4 5 1027.1 1027.3 0.0
21/04:00am 2.2 -0.8 0.7 90 0.6 SSE 6 7 3 4 1027.1 1027.3 0.0
21/03:30am 1.9 -1.4 0.4 90 0.6 SSE 7 9 4 5 1027.1 1027.3 0.0
21/03:00am 1.6 -1.7 0.0 89 0.6 SSE 7 9 4 5 1027.1 1027.3 0.0
21/02:30am 2.7 -0.4 1.1 89 0.6 SSE 7 9 4 5 1027.2 1027.4 0.0
21/02:00am 2.8 -0.3 1.2 89 0.6 SSE 7 9 4 5 1027.2 1027.4 0.0
21/01:30am 2.5 -0.7 0.6 87 0.7 SSE 7 9 4 5 1027.4 1027.6 0.0
21/01:00am 3.0 -0.1 1.1 87 0.7 SSE 7 9 4 5 1027.4 1027.6 0.0
21/12:30am 2.4 -1.3 0.1 85 0.9 SSE 9 11 5 6 1027.4 1027.6 0.0
21/12:00am 3.7 0.6 1.4 85 0.9 ESE 7 9 4 5 1027.4 1027.6 0.0
 
Date/Time
EST
Temp
°C
App
Temp
°C
Dew
Point
Rel
Hum
%
Delta-T
°C
Wind Press
QNH
hPa
Press
MSL
hPa
Rain
since 9 am
mm
Dir
 
Spd
km/h
Gust
km/h
Spd
kts
Gust
kts
20/11:30pm 3.7 1.9 0.9 82 1.1 CALM 0 0 0 0 1027.6 1027.8 0.0
20/11:00pm 4.6 2.9 1.6 81 1.2 CALM 0 0 0 0 1027.5 1027.7 0.0
20/10:30pm 4.9 2.0 1.6 79 1.3 ESE 6 7 3 4 1027.5 1027.7 0.0
20/10:00pm 5.8 3.0 2.1 77 1.5 ESE 6 7 3 4 1027.4 1027.6 0.0
20/09:30pm 6.9 4.0 2.8 75 1.7 ESE 7 9 4 5 1027.4 1027.6 0.0
20/09:00pm 7.0 3.3 2.5 73 1.9 SE 11 13 6 7 1027.4 1027.6 0.0
20/08:30pm 5.8 2.0 1.9 76 1.6 SE 11 15 6 8 1027.4 1027.6 0.0
20/08:00pm 6.2 2.8 1.9 74 1.7 S 9 11 5 6 1027.3 1027.5 0.0
20/07:30pm 7.1 2.7 2.6 73 1.9 S 15 17 8 9 1027.2 1027.4 0.0
20/07:00pm 8.2 3.8 2.9 69 2.2 S 15 20 8 11 1027.1 1027.3 0.0
20/06:30pm 9.2 4.5 3.0 65 2.7 S 17 24 9 13 1026.9 1027.1 0.0
20/06:00pm 10.3 5.3 3.6 63 2.9 SSE 19 24 10 13 1026.7 1026.9 0.0
20/05:30pm 11.2 8.0 4.9 65 2.9 S 11 15 6 8 1026.4 1026.6 0.0
20/05:00pm 10.4 7.5 4.5 67 2.6 SSE 9 11 5 6 1026.3 1026.5 0.0
20/04:30pm 11.2 8.3 4.4 63 3.1 SSE 9 11 5 6 1026.3 1026.5 0.0
20/04:00pm 12.2 8.6 3.2 54 4.0 SE 11 17 6 9 1026.2 1026.4 0.0
20/03:30pm 12.0 7.8 4.0 58 3.6 SE 15 20 8 11 1026.3 1026.5 0.0
20/03:00pm 11.8 7.2 3.6 57 3.6 SSE 17 24 9 13 1026.2 1026.4 0.0
20/02:30pm 12.1 8.4 4.3 59 3.6 SSE 13 20 7 11 1026.2 1026.4 0.0
20/02:00pm 11.2 6.7 4.0 61 3.2 SSE 17 24 9 13 1026.3 1026.5 0.0
20/01:30pm 10.9 7.9 3.9 62 3.1 SSE 9 20 5 11 1026.7 1026.9 0.0
20/01:00pm 10.6 6.9 4.3 65 2.8 SE 13 19 7 10 1027.0 1027.2 0.0
20/12:30pm 10.3 5.8 4.0 65 2.8 ESE 17 20 9 11 1027.2 1027.4 0.0
20/12:00pm 10.3 6.5 4.0 65 2.8 SSE 13 17 7 9 1027.6 1027.8 0.0
20/11:30am 10.1 6.6 3.6 64 2.9 SE 11 20 6 11 1027.8 1028.0 0.0
20/11:00am 9.7 6.6 3.4 65 2.7 ESE 9 15 5 8 1027.9 1028.1 0.0
20/10:30am 9.4 5.1 3.4 66 2.6 E 15 20 8 11 1028.0 1028.3 0.0
20/10:00am 9.3 5.9 4.1 70 2.3 SSE 11 15 6 8 1027.9 1028.1 0.0
20/09:30am 8.1 5.1 4.1 76 1.8 S 9 11 5 6 1027.9 1028.1 0.0

Other Formats:

Comma delimited format used in spreadsheet applications
http://www.bom.gov.au/fwo/IDV60801/IDV60801.94827.axf

JavaScript Object Notation format (JSON) in row-major order
http://www.bom.gov.au/fwo/IDV60801/IDV60801.94827.json